createdAt,value
2022-11-13T00:01:50.035Z,11.05
2022-11-13T00:04:54.488Z,12.88
2022-11-13T00:08:00.544Z,10.82
2022-11-13T00:11:06.483Z,10.10
2022-11-13T00:14:05.283Z,10.40
2022-11-13T00:17:10.499Z,11.00
2022-11-13T00:20:15.496Z,10.63
2022-11-13T00:23:21.489Z,10.73
2022-11-13T00:26:32.507Z,9.65
2022-11-13T00:29:31.620Z,9.20
2022-11-13T00:32:37.501Z,9.85
2022-11-13T00:35:36.600Z,8.80
2022-11-13T00:41:43.550Z,8.98
2022-11-13T00:44:48.502Z,8.40
2022-11-13T00:47:47.551Z,8.40
2022-11-13T00:50:53.481Z,8.13
2022-11-13T00:53:58.491Z,8.85
2022-11-13T00:57:04.483Z,8.90
2022-11-13T01:00:03.983Z,9.00
2022-11-13T01:03:08.495Z,9.13
2022-11-13T01:06:07.549Z,8.48
2022-11-13T01:09:12.483Z,8.48
2022-11-13T01:12:18.497Z,7.95
2022-11-13T01:15:17.069Z,9.05
2022-11-13T01:18:22.509Z,8.60
2022-11-13T01:21:24.812Z,8.50
2022-11-13T01:24:30.507Z,7.72
2022-11-13T01:27:29.112Z,8.05
2022-11-13T01:30:34.512Z,8.38
2022-11-13T01:33:33.017Z,8.02
2022-11-13T01:36:40.504Z,8.40
2022-11-13T01:39:39.103Z,7.65
2022-11-13T01:42:46.487Z,7.75
2022-11-13T01:46:00.404Z,7.68
2022-11-13T01:49:11.525Z,7.80
2022-11-13T01:52:21.516Z,7.68
2022-11-13T01:55:24.543Z,7.53
2022-11-13T01:58:30.722Z,8.05
2022-11-13T02:04:35.522Z,7.70
2022-11-13T02:07:34.538Z,7.53
2022-11-13T02:10:39.516Z,7.80
2022-11-13T02:13:38.638Z,7.82
2022-11-13T02:16:44.506Z,7.72
2022-11-13T02:19:53.503Z,7.60
2022-11-13T02:23:14.455Z,8.07
2022-11-13T02:26:22.517Z,7.35
2022-11-13T02:29:21.611Z,7.38
2022-11-13T02:32:27.887Z,7.53
2022-11-13T02:35:50.516Z,8.05
2022-11-13T02:38:52.548Z,7.55
2022-11-13T02:41:58.519Z,8.05
2022-11-13T02:45:03.532Z,8.40
2022-11-13T02:48:02.544Z,7.65
2022-11-13T02:51:07.504Z,7.78
2022-11-13T02:54:16.915Z,8.07
2022-11-13T02:57:21.501Z,8.00
2022-11-13T03:00:27.488Z,7.95
2022-11-13T03:03:56.523Z,7.75
2022-11-13T03:06:50.541Z,7.53
2022-11-13T03:09:49.565Z,7.75
2022-11-13T03:12:54.508Z,7.70
2022-11-13T03:16:00.517Z,7.72
2022-11-13T03:19:05.495Z,7.45
2022-11-13T03:22:04.568Z,7.10
2022-11-13T03:25:10.875Z,6.55
2022-11-13T03:28:09.561Z,7.05
2022-11-13T03:31:14.504Z,6.72
2022-11-13T03:34:26.503Z,6.75
2022-11-13T03:37:31.497Z,6.60
2022-11-13T03:40:29.553Z,6.97
2022-11-13T03:43:34.504Z,7.57
2022-11-13T03:46:40.488Z,7.10
2022-11-13T03:49:39.016Z,7.15
2022-11-13T03:52:44.497Z,7.90
2022-11-13T03:55:50.516Z,7.18
2022-11-13T03:58:49.884Z,7.60
2022-11-13T04:01:54.541Z,7.07
2022-11-13T04:05:00.497Z,7.65
2022-11-13T04:07:59.067Z,7.45
2022-11-13T04:11:04.504Z,7.30
2022-11-13T04:14:09.512Z,7.22
2022-11-13T04:17:15.489Z,6.80
2022-11-13T04:20:14.039Z,7.32
2022-11-13T04:23:20.503Z,6.47
2022-11-13T04:26:19.285Z,7.68
2022-11-13T04:29:24.499Z,6.68
2022-11-13T04:32:24.012Z,6.97
2022-11-13T04:35:29.544Z,7.00
2022-11-13T04:38:29.221Z,6.85
2022-11-13T04:45:00.495Z,6.85
2022-11-13T04:48:05.506Z,8.27
2022-11-13T04:54:10.508Z,7.53
2022-11-13T04:57:08.977Z,6.97
2022-11-13T05:00:14.515Z,6.35
2022-11-13T05:03:19.501Z,6.50
2022-11-13T05:06:18.576Z,6.90
2022-11-13T05:09:23.505Z,7.22
2022-11-13T05:12:22.687Z,6.65
2022-11-13T05:15:27.502Z,7.00
2022-11-13T05:18:27.004Z,6.13
2022-11-13T05:21:31.517Z,6.78
2022-11-13T05:24:30.535Z,6.50
2022-11-13T05:27:37.507Z,6.18
2022-11-13T05:30:43.494Z,6.63
2022-11-13T05:34:00.025Z,6.28
2022-11-13T05:37:07.497Z,6.50
2022-11-13T05:40:13.495Z,6.72
2022-11-13T05:43:12.011Z,6.22
2022-11-13T05:46:24.499Z,6.70
2022-11-13T05:49:23.003Z,6.45
2022-11-13T05:52:27.503Z,5.70
2022-11-13T05:55:32.506Z,5.78
2022-11-13T05:58:30.794Z,6.68
2022-11-13T06:01:38.745Z,6.40
2022-11-13T06:04:37.583Z,6.72
2022-11-13T06:07:42.503Z,6.93
2022-11-13T06:10:41.656Z,5.88
2022-11-13T06:13:47.498Z,5.90
2022-11-13T06:16:46.651Z,6.07
2022-11-13T06:19:51.507Z,5.70
2022-11-13T06:22:50.561Z,6.25
2022-11-13T06:26:11.532Z,6.05
2022-11-13T06:29:19.530Z,6.05
2022-11-13T06:32:24.512Z,5.50
2022-11-13T06:35:23.581Z,5.97
2022-11-13T06:38:28.820Z,5.72
2022-11-13T06:41:39.503Z,5.22
2022-11-13T06:44:38.004Z,5.72
2022-11-13T06:47:42.516Z,5.88
2022-11-13T06:50:45.689Z,6.13
2022-11-13T06:53:53.491Z,6.10
2022-11-13T06:56:52.475Z,6.03
2022-11-13T06:59:58.491Z,6.72
2022-11-13T07:03:03.539Z,6.57
2022-11-13T07:06:01.552Z,7.07
2022-11-13T07:09:06.550Z,7.45
2022-11-13T07:12:04.836Z,6.72
2022-11-13T07:15:09.508Z,6.97
2022-11-13T07:18:08.560Z,7.65
2022-11-13T07:21:16.510Z,5.25
2022-11-13T07:24:22.526Z,5.28
2022-11-13T07:27:20.967Z,6.70
2022-11-13T07:30:26.526Z,6.93
2022-11-13T07:33:38.500Z,7.10
2022-11-13T07:36:43.499Z,7.13
2022-11-13T07:39:42.577Z,6.60
2022-11-13T07:42:47.511Z,6.65
2022-11-13T07:45:46.569Z,7.03
2022-11-13T07:48:51.518Z,7.22
2022-11-13T07:51:49.552Z,7.13
2022-11-13T07:54:54.525Z,6.30
2022-11-13T07:57:53.578Z,6.70
2022-11-13T08:03:58.557Z,5.85
2022-11-13T08:07:03.555Z,6.20
2022-11-13T08:10:02.584Z,6.30
2022-11-13T08:13:09.507Z,6.95
2022-11-13T08:16:09.591Z,6.82
2022-11-13T08:19:14.498Z,6.05
2022-11-13T08:22:12.576Z,6.60
2022-11-13T08:25:17.512Z,5.93
2022-11-13T08:28:16.593Z,6.00
2022-11-13T08:34:27.570Z,6.28
2022-11-13T08:37:26.503Z,5.47
2022-11-13T08:40:25.010Z,6.20
2022-11-13T08:43:30.520Z,6.47
2022-11-13T08:46:29.301Z,6.15
2022-11-13T08:49:34.529Z,5.90
2022-11-13T08:52:40.517Z,5.88
2022-11-13T08:55:47.510Z,6.53
2022-11-13T08:58:52.509Z,6.18
2022-11-13T09:02:04.513Z,5.90
2022-11-13T09:05:09.509Z,5.88
2022-11-13T09:11:13.509Z,5.95
2022-11-13T09:14:19.543Z,6.50
2022-11-13T09:17:24.504Z,5.82
2022-11-13T09:20:30.551Z,5.53
2022-11-13T09:23:36.514Z,5.90
2022-11-13T09:26:35.612Z,5.88
2022-11-13T09:29:41.511Z,5.53
2022-11-13T09:32:40.586Z,5.55
2022-11-13T09:35:45.513Z,5.57
2022-11-13T09:38:44.592Z,5.60
2022-11-13T09:44:56.561Z,5.65
2022-11-13T09:48:04.516Z,5.65
2022-11-13T09:51:05.570Z,5.32
2022-11-13T09:54:18.536Z,5.45
2022-11-13T09:57:52.521Z,4.82
2022-11-13T10:00:51.240Z,5.38
2022-11-13T10:04:08.142Z,5.35
2022-11-13T10:07:28.562Z,5.28
2022-11-13T10:10:55.908Z,5.25
2022-11-13T10:14:08.518Z,5.30
2022-11-13T10:17:38.527Z,5.47
2022-11-13T10:20:57.540Z,5.03
2022-11-13T10:24:01.564Z,4.70
2022-11-13T10:27:13.560Z,5.47
2022-11-13T10:30:22.515Z,5.22
2022-11-13T10:33:31.745Z,5.00
2022-11-13T10:36:57.639Z,4.80
2022-11-13T10:40:03.528Z,4.78
2022-11-13T10:43:26.793Z,5.03
2022-11-13T10:46:38.527Z,4.90
2022-11-13T10:49:43.530Z,5.05
2022-11-13T10:52:51.636Z,5.43
2022-11-13T10:56:00.537Z,5.13
2022-11-13T10:59:19.597Z,5.63
2022-11-13T11:02:27.519Z,4.82
2022-11-13T11:05:29.617Z,5.05
2022-11-13T11:08:40.542Z,4.80
2022-11-13T11:12:04.542Z,4.75
2022-11-13T11:15:26.570Z,5.20
2022-11-13T11:18:50.536Z,4.63
2022-11-13T11:22:00.527Z,5.07
2022-11-13T11:25:08.594Z,4.93
2022-11-13T11:28:27.940Z,5.10
2022-11-13T11:31:44.550Z,4.72
2022-11-13T11:35:21.533Z,4.85
2022-11-13T11:38:46.610Z,4.47
2022-11-13T11:42:21.548Z,4.80
2022-11-13T11:45:37.552Z,4.38
2022-11-13T11:48:36.144Z,4.75
2022-11-13T11:51:48.560Z,4.93
2022-11-13T11:54:52.488Z,4.57
2022-11-13T11:58:18.539Z,4.93
2022-11-13T12:01:43.526Z,4.25
2022-11-13T12:05:19.723Z,4.32
2022-11-13T12:08:51.555Z,4.22
2022-11-13T12:12:41.577Z,4.15
2022-11-13T12:15:49.708Z,4.80
2022-11-13T12:19:18.558Z,4.15
2022-11-13T12:22:46.434Z,4.28
2022-11-13T12:26:08.551Z,4.38
2022-11-13T12:29:21.990Z,3.83
2022-11-13T12:33:10.533Z,4.13
2022-11-13T12:36:24.557Z,4.07
2022-11-13T12:39:50.536Z,4.05
2022-11-13T12:43:08.588Z,3.88
2022-11-13T12:46:12.589Z,3.60
2022-11-13T12:49:39.562Z,3.80
2022-11-13T12:52:38.045Z,3.90
2022-11-13T12:55:46.552Z,3.58
2022-11-13T12:59:35.853Z,3.67
2022-11-13T13:02:45.684Z,3.72
2022-11-13T13:06:28.541Z,3.70
2022-11-13T13:09:56.557Z,3.58
2022-11-13T13:13:24.709Z,3.33
2022-11-13T13:16:37.560Z,3.22
2022-11-13T13:19:35.995Z,3.80
2022-11-13T13:22:47.590Z,3.50
2022-11-13T13:25:52.546Z,3.40
2022-11-13T13:29:30.551Z,3.20
2022-11-13T13:32:43.583Z,3.05
2022-11-13T13:36:05.548Z,3.05
2022-11-13T13:39:38.572Z,3.05
2022-11-13T13:43:15.612Z,3.20
2022-11-13T13:46:27.584Z,3.10
2022-11-13T13:49:35.556Z,3.15
2022-11-13T13:52:36.595Z,2.88
2022-11-13T13:55:45.551Z,2.72
2022-11-13T13:58:44.255Z,2.47
2022-11-13T14:01:49.556Z,2.72
2022-11-13T14:04:50.356Z,2.55
2022-11-13T14:07:59.641Z,2.50
2022-11-13T14:10:58.016Z,2.55
2022-11-13T14:14:03.560Z,2.60
2022-11-13T14:17:03.801Z,2.28
2022-11-13T14:20:10.555Z,2.60
2022-11-13T14:23:19.566Z,2.38
2022-11-13T14:26:19.625Z,2.47
2022-11-13T14:29:42.585Z,2.30
2022-11-13T14:32:47.435Z,2.08
2022-11-13T14:35:59.560Z,2.28
2022-11-13T14:38:59.734Z,2.20
2022-11-13T14:42:06.564Z,2.00
2022-11-13T14:45:33.589Z,1.90
2022-11-13T14:48:34.183Z,1.90
2022-11-13T14:51:45.571Z,2.00
2022-11-13T14:58:09.565Z,1.90
2022-11-13T15:01:25.577Z,2.00
2022-11-13T15:04:24.717Z,1.80
2022-11-13T15:10:35.626Z,1.90
2022-11-13T15:13:40.557Z,1.85
2022-11-13T15:16:39.646Z,1.90
2022-11-13T15:19:44.576Z,1.70
2022-11-13T15:22:44.977Z,1.63
2022-11-13T15:25:49.564Z,1.52
2022-11-13T15:28:48.624Z,1.50
2022-11-13T15:31:54.580Z,1.85
2022-11-13T15:35:06.566Z,1.60
2022-11-13T15:38:12.584Z,1.77
2022-11-13T15:41:19.620Z,1.65
2022-11-13T15:44:24.576Z,1.80
2022-11-13T15:50:43.581Z,1.60
2022-11-13T15:53:42.616Z,1.60
2022-11-13T15:56:48.595Z,1.80
2022-11-13T15:59:47.615Z,1.85
2022-11-13T16:06:02.578Z,2.13
2022-11-13T16:09:08.593Z,2.10
2022-11-13T16:12:14.594Z,2.30
2022-11-13T16:18:32.064Z,2.42
2022-11-13T16:24:42.595Z,2.92
2022-11-13T16:27:41.353Z,2.55
2022-11-13T16:30:46.615Z,3.03
2022-11-13T16:33:45.071Z,3.38
2022-11-13T16:36:50.593Z,3.78
2022-11-13T16:39:49.816Z,4.20
2022-11-13T16:42:55.600Z,3.80
2022-11-13T16:46:01.561Z,4.05
2022-11-13T16:49:07.648Z,4.10
2022-11-13T16:52:06.056Z,3.90
2022-11-13T16:55:11.597Z,4.43
2022-11-13T16:58:13.419Z,4.22
2022-11-13T17:01:19.601Z,4.90
2022-11-13T17:04:18.057Z,4.35
2022-11-13T17:07:25.650Z,4.68
2022-11-13T17:10:31.212Z,4.78
2022-11-13T17:13:38.650Z,5.03
2022-11-13T17:16:37.531Z,5.65
2022-11-13T17:19:47.572Z,4.70
2022-11-13T17:22:54.607Z,4.85
2022-11-13T17:26:00.581Z,5.45
2022-11-13T17:29:02.050Z,5.28
2022-11-13T17:32:07.604Z,5.10
2022-11-13T17:35:14.602Z,5.55
2022-11-13T17:38:13.644Z,5.75
2022-11-13T17:41:22.604Z,5.75
2022-11-13T17:44:14.633Z,5.40
2022-11-13T17:47:19.598Z,5.90
2022-11-13T17:50:18.784Z,6.07
2022-11-13T17:53:23.611Z,5.80
2022-11-13T17:56:22.668Z,6.22
2022-11-13T17:59:27.570Z,5.95
2022-11-13T18:02:26.690Z,5.93
2022-11-13T18:05:31.572Z,5.63
2022-11-13T18:08:37.601Z,5.35
2022-11-13T18:11:36.085Z,5.57
2022-11-13T18:15:05.217Z,5.80
2022-11-13T18:18:09.576Z,5.90
2022-11-13T18:21:31.666Z,5.78
2022-11-13T18:24:36.613Z,5.68
2022-11-13T18:27:42.639Z,5.53
2022-11-13T18:30:41.055Z,5.65
2022-11-13T18:33:46.591Z,5.45
2022-11-13T18:36:51.676Z,5.95
2022-11-13T18:42:51.186Z,5.55
2022-11-13T18:45:56.618Z,5.68
2022-11-13T18:48:56.620Z,5.25
2022-11-13T18:52:02.616Z,5.40
2022-11-13T18:55:07.712Z,5.40
2022-11-13T18:58:06.642Z,5.50
2022-11-13T19:01:26.657Z,5.97
2022-11-13T19:04:25.733Z,5.95
2022-11-13T19:07:30.601Z,6.15
2022-11-13T19:10:29.688Z,5.63
2022-11-13T19:13:34.604Z,6.10
2022-11-13T19:16:35.649Z,5.65
2022-11-13T19:19:40.604Z,5.22
2022-11-13T19:22:39.636Z,5.60
2022-11-13T19:25:44.592Z,5.22
2022-11-13T19:28:43.647Z,5.30
2022-11-13T19:31:51.604Z,5.55
2022-11-13T19:34:50.668Z,5.10
2022-11-13T19:38:02.604Z,5.40
2022-11-13T19:41:08.608Z,5.32
2022-11-13T19:44:22.621Z,5.60
2022-11-13T19:47:21.106Z,5.50
2022-11-13T19:50:26.593Z,5.53
2022-11-13T19:53:31.595Z,5.45
2022-11-13T19:56:31.651Z,5.68
2022-11-13T19:59:36.596Z,5.95
2022-11-13T20:02:42.585Z,5.90
2022-11-13T20:05:48.631Z,6.07
2022-11-13T20:08:47.704Z,6.07
2022-11-13T20:11:52.607Z,5.68
2022-11-13T20:14:58.594Z,5.55
2022-11-13T20:18:03.609Z,6.10
2022-11-13T20:21:09.596Z,7.13
2022-11-13T20:24:09.906Z,7.28
2022-11-13T20:27:15.612Z,7.10
2022-11-13T20:30:14.384Z,7.75
2022-11-13T20:33:22.547Z,7.72
2022-11-13T20:36:28.672Z,7.45
2022-11-13T20:39:27.600Z,7.88
2022-11-13T20:42:32.620Z,7.38
2022-11-13T20:45:38.659Z,7.10
2022-11-13T20:48:44.597Z,6.93
2022-11-13T20:51:54.644Z,6.25
2022-11-13T20:54:55.061Z,6.82
2022-11-13T20:58:00.629Z,7.00
2022-11-13T21:01:07.196Z,7.68
2022-11-13T21:04:12.633Z,7.40
2022-11-13T21:07:17.700Z,7.20
2022-11-13T21:10:16.607Z,7.30
2022-11-13T21:13:22.732Z,7.22
2022-11-13T21:16:28.176Z,7.50
2022-11-13T21:19:26.606Z,7.22
2022-11-13T21:22:25.129Z,7.80
2022-11-13T21:25:30.630Z,7.78
2022-11-13T21:28:33.678Z,8.48
2022-11-13T21:31:40.600Z,8.38
2022-11-13T21:34:52.686Z,7.80
2022-11-13T21:37:57.608Z,9.32
2022-11-13T21:41:22.126Z,8.77
2022-11-13T21:44:26.607Z,8.80
2022-11-13T21:47:24.644Z,9.48
2022-11-13T21:50:29.604Z,8.27
2022-11-13T21:53:28.643Z,8.50
2022-11-13T21:56:35.610Z,8.75
2022-11-13T21:59:34.653Z,9.02
2022-11-13T22:02:39.662Z,8.30
2022-11-13T22:05:44.613Z,8.93
2022-11-13T22:08:44.260Z,8.77
2022-11-13T22:11:49.599Z,8.82
2022-11-13T22:14:48.141Z,7.93
2022-11-13T22:17:53.584Z,8.20
2022-11-13T22:20:52.128Z,8.13
2022-11-13T22:23:57.609Z,7.78
2022-11-13T22:27:02.620Z,7.85
2022-11-13T22:30:01.693Z,7.78
2022-11-13T22:36:34.607Z,8.70
2022-11-13T22:39:40.618Z,8.13
2022-11-13T22:42:39.664Z,8.40
2022-11-13T22:45:45.669Z,8.40
2022-11-13T22:51:49.602Z,8.45
2022-11-13T22:54:48.687Z,8.02
2022-11-13T22:57:53.610Z,8.10
2022-11-13T23:00:52.674Z,8.30
2022-11-13T23:03:59.678Z,8.75
2022-11-13T23:06:58.767Z,8.73
2022-11-13T23:10:03.595Z,8.75
2022-11-13T23:13:09.627Z,8.93
2022-11-13T23:16:08.152Z,8.68
2022-11-13T23:19:14.646Z,9.18
2022-11-13T23:22:20.616Z,8.60
2022-11-13T23:25:19.704Z,9.27
2022-11-13T23:28:24.612Z,9.48
2022-11-13T23:31:31.597Z,9.23
2022-11-13T23:34:58.675Z,10.18
2022-11-13T23:38:01.670Z,9.75
2022-11-13T23:41:04.624Z,9.45
2022-11-13T23:44:08.930Z,10.38
2022-11-13T23:47:15.649Z,9.88
2022-11-13T23:50:14.157Z,10.45
2022-11-13T23:53:19.619Z,10.23
2022-11-13T23:56:18.086Z,10.30
2022-11-13T23:59:23.660Z,10.48
